createdAt,value
2023-04-22T00:02:32.692Z,9.3
2023-04-22T00:08:39.502Z,9.2
2023-04-22T00:10:40.703Z,9.2
2023-04-22T00:14:43.144Z,9.1
2023-04-22T00:16:44.365Z,9.1
2023-04-22T00:24:52.496Z,9.1
2023-04-22T00:25:54.700Z,9.1
2023-04-22T00:27:55.920Z,9.1
2023-04-22T00:29:57.120Z,9.1
2023-04-22T00:31:58.408Z,9.1
2023-04-22T00:34:02.823Z,9.1
2023-04-22T00:36:04.058Z,9.1
2023-04-22T00:38:05.262Z,9.1
2023-04-22T00:40:06.477Z,9.1
2023-04-22T00:42:07.682Z,9.1
2023-04-22T00:44:08.915Z,9
2023-04-22T00:46:10.077Z,9
2023-04-22T00:48:14.714Z,9
2023-04-22T00:50:15.787Z,8.9
2023-04-22T00:52:17.020Z,8.9
2023-04-22T00:54:18.221Z,8.9
2023-04-22T00:56:19.439Z,8.9
2023-04-22T00:58:20.639Z,8.9
2023-04-22T01:00:21.855Z,8.8
2023-04-22T01:02:26.439Z,8.8
2023-04-22T01:08:29.988Z,8.8
2023-04-22T01:10:31.201Z,8.7
2023-04-22T01:12:32.430Z,8.7
2023-04-22T01:14:33.615Z,8.7
2023-04-22T01:16:38.248Z,8.6
2023-04-22T01:18:39.276Z,8.6
2023-04-22T01:20:40.494Z,8.6
2023-04-22T01:23:08.827Z,8.5
2023-04-22T01:25:10.039Z,8.5
2023-04-22T01:27:11.228Z,8.5
2023-04-22T01:29:15.731Z,8.5
2023-04-22T01:31:16.911Z,8.4
2023-04-22T01:33:18.147Z,8.5
2023-04-22T01:35:19.353Z,8.4
2023-04-22T01:37:20.550Z,8.4
2023-04-22T01:39:21.763Z,8.4
2023-04-22T01:43:27.408Z,8.3
2023-04-22T01:47:29.826Z,8.4
2023-04-22T01:49:31.052Z,8.3
2023-04-22T01:51:32.239Z,8.3
2023-04-22T01:55:34.643Z,8.3
2023-04-22T01:57:39.133Z,8.3
2023-04-22T01:59:40.837Z,8.3
2023-04-22T02:03:42.824Z,8.2
2023-04-22T02:05:43.918Z,8.2
2023-04-22T02:07:45.169Z,8.2
2023-04-22T02:09:47.764Z,8.2
2023-04-22T02:13:52.002Z,8.1
2023-04-22T02:15:53.282Z,8
2023-04-22T02:16:55.416Z,8
2023-04-22T02:18:56.635Z,8
2023-04-22T02:20:57.789Z,8
2023-04-22T02:22:59.007Z,7.9
2023-04-22T02:25:03.471Z,7.9
2023-04-22T02:27:04.660Z,7.9
2023-04-22T02:29:05.855Z,7.9
2023-04-22T02:31:07.116Z,7.9
2023-04-22T02:37:10.644Z,7.9
2023-04-22T02:41:16.291Z,7.9
2023-04-22T02:43:17.489Z,7.9
2023-04-22T02:45:18.702Z,7.9
2023-04-22T02:53:26.747Z,7.8
2023-04-22T02:57:29.113Z,7.9
2023-04-22T02:59:30.355Z,7.9
2023-04-22T03:01:31.651Z,7.8
2023-04-22T03:05:33.951Z,7.8
2023-04-22T03:07:38.394Z,7.8
2023-04-22T03:09:39.833Z,7.9
2023-04-22T03:12:43.035Z,7.7
2023-04-22T03:14:44.205Z,7.7
2023-04-22T03:16:45.433Z,7.7
2023-04-22T03:18:46.623Z,7.6
2023-04-22T03:22:52.261Z,7.6
2023-04-22T03:24:53.450Z,7.6
2023-04-22T03:26:54.655Z,7.7
2023-04-22T03:28:57.392Z,7.6
2023-04-22T03:30:58.522Z,7.7
2023-04-22T03:32:59.862Z,7.7
2023-04-22T03:35:04.192Z,7.6
2023-04-22T03:39:06.589Z,7.6
2023-04-22T03:41:07.855Z,7.6
2023-04-22T03:43:08.946Z,7.6
2023-04-22T03:45:10.151Z,7.7
2023-04-22T03:51:17.006Z,7.8
2023-04-22T03:57:20.595Z,7.8
2023-04-22T04:01:23.016Z,7.9
2023-04-22T04:03:30.185Z,7.8
2023-04-22T04:05:28.852Z,7.8
2023-04-22T04:07:29.854Z,7.8
2023-04-22T04:08:32.078Z,7.8
2023-04-22T04:10:33.285Z,7.8
2023-04-22T04:12:34.485Z,7.8
2023-04-22T04:18:41.331Z,7.9
2023-04-22T04:22:43.702Z,8
2023-04-22T04:24:44.895Z,8
2023-04-22T04:28:47.285Z,7.9
2023-04-22T04:30:51.762Z,8
2023-04-22T04:32:53.002Z,8
2023-04-22T04:53:08.165Z,7.9
2023-04-22T04:55:09.411Z,7.9
2023-04-22T04:59:15.051Z,7.9
2023-04-22T05:01:16.289Z,7.9
2023-04-22T05:03:17.616Z,7.9
2023-04-22T05:09:48.194Z,8
2023-04-22T05:11:52.664Z,8
2023-04-22T05:13:53.900Z,8
2023-04-22T05:17:56.311Z,8.1
2023-04-22T05:19:57.475Z,8.1
2023-04-22T05:21:58.684Z,8.2
2023-04-22T05:23:59.887Z,8.2
2023-04-22T05:30:07.722Z,8.3
2023-04-22T05:32:09.028Z,8.3
2023-04-22T05:36:11.324Z,8.3
2023-04-22T05:38:12.546Z,8.3
2023-04-22T05:42:18.211Z,8.3
2023-04-22T05:44:19.411Z,8.3
2023-04-22T05:46:20.665Z,8.4
2023-04-22T05:48:21.871Z,8.4
2023-04-22T05:50:23.492Z,8.4
2023-04-22T05:59:33.391Z,8.6
2023-04-22T06:01:34.578Z,8.6
2023-04-22T06:03:36.226Z,8.6
2023-04-22T06:05:37.075Z,8.7
2023-04-22T06:07:41.496Z,8.8
2023-04-22T06:09:42.887Z,8.8
2023-04-22T06:11:43.876Z,8.9
2023-04-22T06:13:45.117Z,8.9
2023-04-22T06:15:46.330Z,9
2023-04-22T06:17:47.582Z,9.1
2023-04-22T06:19:48.716Z,9.1
2023-04-22T06:21:53.176Z,9
2023-04-22T06:23:54.424Z,9.1
2023-04-22T06:25:55.614Z,9.1
2023-04-22T06:27:56.812Z,9.2
2023-04-22T06:29:58.027Z,9.2
2023-04-22T06:31:59.225Z,9.3
2023-04-22T06:34:00.444Z,9.3
2023-04-22T06:36:04.927Z,9.3
2023-04-22T06:38:06.130Z,9.3
2023-04-22T06:40:07.315Z,9.4
2023-04-22T06:42:08.553Z,9.5
2023-04-22T06:44:09.746Z,9.6
2023-04-22T06:50:16.683Z,9.7
2023-04-22T06:55:21.337Z,9.8
2023-04-22T06:57:22.577Z,9.8
2023-04-22T06:59:23.852Z,9.8
2023-04-22T07:01:25.017Z,9.9
2023-04-22T07:03:29.643Z,10.1
2023-04-22T07:05:30.665Z,10.1
2023-04-22T07:07:31.866Z,10.2
2023-04-22T07:11:34.306Z,10.7
2023-04-22T07:13:35.524Z,11
2023-04-22T07:15:36.719Z,11.2
2023-04-22T07:17:41.256Z,11.4
2023-04-22T07:19:42.516Z,11.5
2023-04-22T07:21:43.626Z,11.7
2023-04-22T07:23:44.858Z,11.9
2023-04-22T07:29:48.488Z,12.1
2023-04-22T07:35:55.444Z,12.7
2023-04-22T07:37:56.699Z,12.9
2023-04-22T07:44:00.204Z,13
2023-04-22T07:48:05.699Z,13
2023-04-22T07:50:06.712Z,13.4
2023-04-22T07:51:08.878Z,13.4
2023-04-22T07:55:11.216Z,13.8
2023-04-22T07:57:12.347Z,14
2023-04-22T07:59:16.631Z,14.5
2023-04-22T08:01:19.960Z,15
2023-04-22T08:05:20.003Z,16.2
2023-04-22T08:09:22.176Z,16
2023-04-22T08:11:23.250Z,16.3
2023-04-22T08:13:27.558Z,15.9
2023-04-22T08:15:28.671Z,15.7
2023-04-22T08:19:30.874Z,15.9
2023-04-22T08:21:31.953Z,16.6
2023-04-22T08:23:33.064Z,16.6
2023-04-22T08:25:34.161Z,16.3
2023-04-22T08:27:38.465Z,16.5
2023-04-22T08:29:39.746Z,16.7
2023-04-22T08:31:40.761Z,16.4
2023-04-22T08:33:41.718Z,16.4
2023-04-22T08:35:42.803Z,16.5
2023-04-22T08:37:43.937Z,16.7
2023-04-22T08:39:45.000Z,17.1
2023-04-22T08:41:49.276Z,17.3
2023-04-22T08:43:50.368Z,17.3
2023-04-22T08:45:51.452Z,17.3
2023-04-22T08:58:27.990Z,16.5
2023-04-22T09:02:30.198Z,16.9
2023-04-22T09:04:31.329Z,17.1
2023-04-22T09:08:36.547Z,18.2
2023-04-22T09:10:37.599Z,18.1
2023-04-22T09:12:38.659Z,18.1
2023-04-22T09:20:44.420Z,18
2023-04-22T09:22:48.769Z,18.2
2023-04-22T09:28:51.844Z,18.2
2023-04-22T09:36:59.305Z,18.3
2023-04-22T09:39:00.287Z,18.2
2023-04-22T09:41:01.355Z,18.4
2023-04-22T09:42:03.454Z,18.5
2023-04-22T09:44:04.503Z,18.7
2023-04-22T09:50:10.905Z,19.4
2023-04-22T09:52:11.871Z,19.3
2023-04-22T10:02:17.076Z,20.2
2023-04-22T10:04:21.427Z,20.2
2023-04-22T10:06:22.295Z,20.3
2023-04-22T10:08:23.313Z,20.2
2023-04-22T10:10:24.316Z,20.1
2023-04-22T10:12:32.841Z,20.8
2023-04-22T10:18:31.616Z,21.2
2023-04-22T10:20:32.593Z,21.3
2023-04-22T10:22:33.610Z,21.5
2023-04-22T10:26:35.582Z,21
2023-04-22T10:28:36.570Z,21.4
2023-04-22T10:32:41.799Z,22.1
2023-04-22T10:34:42.749Z,22
2023-04-22T10:43:48.817Z,21.3
2023-04-22T10:49:55.051Z,21.5
2023-04-22T10:53:57.023Z,21.7
2023-04-22T10:55:58.004Z,20.8
2023-04-22T10:57:58.990Z,20
2023-04-22T11:00:03.153Z,19.3
2023-04-22T11:02:04.151Z,19.3
2023-04-22T11:04:05.240Z,19.6
2023-04-22T11:06:06.109Z,20
2023-04-22T11:08:07.147Z,19.6
2023-04-22T11:33:27.695Z,19.9
2023-04-22T11:35:28.693Z,19.9
2023-04-22T11:37:29.735Z,20
2023-04-22T11:39:30.843Z,19.8
2023-04-22T11:41:34.937Z,19.7
2023-04-22T11:43:35.973Z,19.7
2023-04-22T11:47:37.998Z,19.8
2023-04-22T11:51:40.011Z,19.3
2023-04-22T11:57:46.309Z,19.6
2023-04-22T11:59:47.316Z,19.6
2023-04-22T12:01:48.396Z,19.5
2023-04-22T12:03:49.493Z,19.5
2023-04-22T12:07:51.463Z,18.9
2023-04-22T12:09:55.679Z,18.6
2023-04-22T12:13:57.761Z,18.7
2023-04-22T12:26:07.253Z,18.6
2023-04-22T12:28:08.366Z,18.5
2023-04-22T12:32:37.285Z,18.3
2023-04-22T12:42:45.760Z,18.1
2023-04-22T12:44:46.859Z,17.9
2023-04-22T12:46:47.975Z,17.9
2023-04-22T12:50:53.248Z,17.8
2023-04-22T12:52:54.297Z,17.7
2023-04-22T12:54:55.364Z,17.6
2023-04-22T12:56:56.423Z,17.5
2023-04-22T12:58:57.530Z,17.5
2023-04-22T13:05:03.902Z,17.3
2023-04-22T13:07:04.992Z,17.2
2023-04-22T13:11:07.161Z,17.2
2023-04-22T13:15:09.275Z,17.1
2023-04-22T13:17:10.345Z,17.1
2023-04-22T13:19:14.611Z,17.2
2023-04-22T13:21:15.680Z,17.2
2023-04-22T13:23:16.758Z,17.2
2023-04-22T13:24:18.882Z,17.3
2023-04-22T13:26:19.966Z,17.3
2023-04-22T13:28:21.040Z,17.2
2023-04-22T13:30:22.113Z,17.2
2023-04-22T13:32:26.429Z,17
2023-04-22T13:34:27.450Z,16.9
2023-04-22T13:36:28.515Z,16.9
2023-04-22T13:38:29.589Z,16.8
2023-04-22T13:40:30.695Z,16.6
2023-04-22T13:42:31.752Z,16.4
2023-04-22T13:44:32.809Z,16.3
2023-04-22T13:52:40.339Z,15.9
2023-04-22T13:54:41.399Z,15.7
2023-04-22T13:56:42.513Z,15.6
2023-04-22T13:58:43.591Z,15.4
2023-04-22T14:00:47.933Z,15.3
2023-04-22T14:04:50.076Z,15.2
2023-04-22T14:06:51.170Z,15
2023-04-22T14:08:52.266Z,14.8
2023-04-22T14:10:53.335Z,14.7
2023-04-22T14:12:54.445Z,14.6
2023-04-22T14:19:00.944Z,14.3
2023-04-22T14:20:03.041Z,14.3
2023-04-22T14:22:04.163Z,14.3
2023-04-22T14:26:06.345Z,14.2
2023-04-22T14:28:10.647Z,14.1
2023-04-22T14:30:11.747Z,14.1
2023-04-22T14:36:15.039Z,14.1
2023-04-22T14:40:17.253Z,14.2
2023-04-22T14:46:23.737Z,14.2
2023-04-22T14:48:24.836Z,14.2
2023-04-22T14:58:33.578Z,14.4
2023-04-22T15:02:36.054Z,14.5
2023-04-22T15:04:37.020Z,14.5
2023-04-22T15:08:40.675Z,14.6
2023-04-22T15:10:44.929Z,14.7
2023-04-22T15:12:46.026Z,14.7
2023-04-22T15:14:47.136Z,14.7
2023-04-22T15:15:49.303Z,14.7
2023-04-22T15:23:56.888Z,14.6
2023-04-22T15:25:57.974Z,14.5
2023-04-22T15:27:59.121Z,14.5
2023-04-22T15:30:00.241Z,14.5
2023-04-22T15:32:01.370Z,14.5
2023-04-22T15:36:03.546Z,14.4
2023-04-22T15:38:07.872Z,14.3
2023-04-22T15:40:08.930Z,14.3
2023-04-22T15:42:10.021Z,14.3
2023-04-22T15:46:12.240Z,14.3
2023-04-22T15:50:14.494Z,14.3
2023-04-22T15:52:18.753Z,14.3
2023-04-22T16:10:31.937Z,13.7
2023-04-22T16:12:59.914Z,13.6
2023-04-22T16:17:02.281Z,13.6
2023-04-22T16:19:06.447Z,13.6
2023-04-22T16:21:07.556Z,13.6
2023-04-22T16:23:08.641Z,13.6
2023-04-22T16:25:09.788Z,13.6
2023-04-22T16:27:10.895Z,13.6
2023-04-22T16:29:11.992Z,13.5
2023-04-22T16:31:13.216Z,13.4
2023-04-22T16:33:17.375Z,13.4
2023-04-22T16:35:18.500Z,13.5
2023-04-22T16:37:19.614Z,13.6
2023-04-22T16:39:20.729Z,13.6
2023-04-22T16:41:21.832Z,13.6
2023-04-22T16:43:22.940Z,13.6
2023-04-22T16:45:24.061Z,13.6
2023-04-22T16:49:29.458Z,13.6
2023-04-22T16:51:30.604Z,13.6
2023-04-22T16:53:31.702Z,13.6
2023-04-22T16:57:34.059Z,13.5
2023-04-22T17:03:40.934Z,13.4
2023-04-22T17:05:41.677Z,13.4
2023-04-22T17:06:43.832Z,13.4
2023-04-22T17:08:44.930Z,13.4
2023-04-22T17:10:46.942Z,13.4
2023-04-22T17:12:48.100Z,13.3
2023-04-22T17:14:52.372Z,13.3
2023-04-22T17:16:53.482Z,13.3
2023-04-22T17:18:54.613Z,13.3
2023-04-22T17:22:56.848Z,13.2
2023-04-22T17:24:57.928Z,12.9
2023-04-22T17:26:59.050Z,12.5
2023-04-22T17:29:03.396Z,11.8
2023-04-22T17:31:04.501Z,11.5
2023-04-22T17:33:05.580Z,11.2
2023-04-22T17:35:06.779Z,11
2023-04-22T17:37:07.863Z,10.9
2023-04-22T17:39:09.106Z,10.8
2023-04-22T17:41:10.304Z,10.9
2023-04-22T17:43:14.726Z,10.8
2023-04-22T17:45:15.984Z,10.8
2023-04-22T17:47:17.145Z,10.8
2023-04-22T17:55:22.057Z,10.6
2023-04-22T18:02:31.352Z,10.4
2023-04-22T18:04:32.451Z,10.3
2023-04-22T18:08:34.874Z,10.4
2023-04-22T18:10:39.372Z,10.4
2023-04-22T18:12:40.606Z,10.4
2023-04-22T18:14:41.797Z,10.3
2023-04-22T18:18:44.258Z,10.3
2023-04-22T18:20:45.470Z,10.4
2023-04-22T18:22:46.684Z,10.4
2023-04-22T18:24:51.160Z,10.4
2023-04-22T18:26:52.368Z,10.4
2023-04-22T18:28:53.584Z,10.4
2023-04-22T18:30:54.831Z,10.5
2023-04-22T18:32:56.051Z,10.5
2023-04-22T18:34:57.250Z,10.4
2023-04-22T18:36:58.456Z,10.4
2023-04-22T18:39:02.907Z,10.4
2023-04-22T18:43:05.327Z,10.4
2023-04-22T18:45:06.542Z,10.4
2023-04-22T18:47:07.763Z,10.3
2023-04-22T18:49:08.987Z,10.2
2023-04-22T18:51:10.195Z,10.3
2023-04-22T18:55:15.875Z,10.2
2023-04-22T18:57:17.090Z,10.3
2023-04-22T18:58:19.326Z,10.3
2023-04-22T19:00:20.540Z,10.3
2023-04-22T19:02:21.763Z,10.2
2023-04-22T19:04:23.016Z,10.2
2023-04-22T19:06:27.429Z,10.2
2023-04-22T19:08:28.659Z,10.2
2023-04-22T19:10:29.837Z,10.2
2023-04-22T19:12:31.102Z,10.2
2023-04-22T19:14:32.284Z,10.2
2023-04-22T19:16:33.520Z,10.1
2023-04-22T19:18:34.701Z,10.1
2023-04-22T19:36:52.125Z,10.2
2023-04-22T19:38:53.347Z,10.3
2023-04-22T19:42:55.769Z,10.3
2023-04-22T19:44:56.990Z,10.3
2023-04-22T19:46:58.340Z,10.3
2023-04-22T19:49:02.660Z,10.4
2023-04-22T19:51:03.871Z,10.4
2023-04-22T19:53:05.051Z,10.4
2023-04-22T19:55:33.493Z,10.4
2023-04-22T19:59:35.888Z,10.3
2023-04-22T20:03:41.739Z,10.2
2023-04-22T20:05:42.787Z,10.2
2023-04-22T20:07:43.999Z,10.2
2023-04-22T20:09:45.237Z,10.2
2023-04-22T20:11:46.430Z,10.1
2023-04-22T20:13:48.128Z,10.2
2023-04-22T20:15:52.137Z,10.1
2023-04-22T20:36:07.476Z,9.8
2023-04-22T20:38:08.672Z,9.7
2023-04-22T20:40:09.884Z,9.7
2023-04-22T20:42:11.129Z,9.7
2023-04-22T20:44:15.597Z,9.6
2023-04-22T20:46:16.997Z,9.5
2023-04-22T20:48:18.047Z,9.5
2023-04-22T20:49:20.250Z,9.4
2023-04-22T20:51:21.470Z,9.4
2023-04-22T20:53:22.691Z,9.4
2023-04-22T20:55:23.901Z,9.4
2023-04-22T20:57:29.921Z,9.4
2023-04-22T20:59:31.102Z,9.3
2023-04-22T21:01:32.372Z,9.3
2023-04-22T21:03:33.673Z,9.3
2023-04-22T21:23:49.006Z,9
2023-04-22T21:27:54.622Z,9
2023-04-22T21:29:55.828Z,9
2023-04-22T21:32:08.233Z,9
2023-04-22T21:33:58.258Z,8.9
2023-04-22T21:35:59.449Z,8.9
2023-04-22T21:45:09.816Z,8.7
2023-04-22T21:47:11.041Z,8.7
2023-04-22T21:49:12.278Z,8.7
2023-04-22T21:57:20.377Z,8.7
2023-04-22T22:01:22.831Z,8.7
2023-04-22T22:03:24.172Z,8.7
2023-04-22T22:05:25.188Z,8.7
2023-04-22T22:07:29.660Z,8.7
2023-04-22T22:09:30.862Z,8.7
2023-04-22T22:11:32.053Z,8.6
2023-04-22T22:13:33.242Z,8.6
2023-04-22T22:15:34.473Z,8.6
2023-04-22T22:17:35.696Z,8.6
2023-04-22T22:21:41.355Z,8.6
2023-04-22T22:23:42.550Z,8.6
2023-04-22T22:25:43.762Z,8.7
2023-04-22T22:33:48.641Z,8.7
2023-04-22T22:37:54.282Z,8.7
2023-04-22T22:39:55.479Z,8.7
2023-04-22T22:40:57.745Z,8.7
2023-04-22T22:49:05.767Z,8.6
2023-04-22T22:53:08.170Z,8.6
2023-04-22T22:55:09.389Z,8.6
2023-04-22T22:57:10.613Z,8.6
2023-04-22T22:59:11.813Z,8.6
2023-04-22T23:01:13.102Z,8.6
2023-04-22T23:03:19.689Z,8.6
2023-04-22T23:05:18.682Z,8.6
2023-04-22T23:07:19.895Z,8.6
2023-04-22T23:13:23.550Z,8.6
2023-04-22T23:15:24.791Z,8.6
2023-04-22T23:19:30.445Z,8.6
2023-04-22T23:23:32.866Z,8.6
2023-04-22T23:33:42.119Z,8.6
2023-04-22T23:35:43.314Z,8.6
2023-04-22T23:38:11.636Z,8.6
2023-04-22T23:40:12.819Z,8.6
2023-04-22T23:46:19.704Z,8.6
2023-04-22T23:50:22.115Z,8.6
2023-04-22T23:52:23.301Z,8.6
2023-04-22T23:54:24.505Z,8.6
2023-04-22T23:56:25.717Z,8.6
2023-04-22T23:58:30.169Z,8.6
